• Join FlightAware (Why Join?)
  • Login
  • US Flag 
07:29AM EDT


 

Airport Tracker/Info


-or-


 

Live Flight TrackerFlight Track Log ✈ SKW6330 ✈ 30 de Apr de 2013 ✈ KLAX - KFAT

Flight Track Log - Related Links

Times and Time Zones

All times are in EDT time to prevent confusion due to time zone crossing. See the SKW6330 flight status page for this flight to view local times or setup timezone preferences in your user account.

Time Position Orientation Groundspeed Altitude Reporting Facility
EDT Latitude Longitude Course Direction KTS MPH feet Rate Location/Type
07:22PM 33.9500 -118.4500 320° Northwest 144 166 1,800  Level Southern California TRACON
07:22PM 33.9503 -118.4794 271° West 153 176 2,300 1,140 Climbing Los Angeles Center
07:23PM 33.9728 -118.5411 294° West 204 235 3,500 1,500 Climbing Los Angeles Center
07:24PM 34.0069 -118.6017 304° West 202 232 5,500 1,620 Climbing Los Angeles Center
07:25PM 34.0489 -118.6356 326° Northwest 191 220 6,900 720 Climbing Los Angeles Center
07:26PM 34.1114 -118.6442 353° North 226 260 7,100 660 Climbing Los Angeles Center
07:27PM 34.2204 -118.5537 320° Northwest  Level FlightAware Approximate
07:27PM 34.1747 -118.6542 353° North 227 261 8,300  Level Los Angeles Center
07:28PM 34.2386 -118.6642 353° North 230 265 9,400 1,020 Climbing Los Angeles Center
07:30PM 34.3142 -118.6778 352° North 228 262 10,700 1,200 Climbing Los Angeles Center
07:31PM 34.3922 -118.6908 352° North 237 273 11,900 780 Climbing Los Angeles Center
07:32PM 34.4647 -118.7050 351° North 262 302 12,400 480 Climbing Los Angeles Center
07:33PM 34.5325 -118.7244 347° North 253 291 13,000 240 Climbing Los Angeles Center
07:34PM 34.6019 -118.7408 349° North 257 296 13,000 600 Level Los Angeles Center
07:35PM 34.6686 -118.7542 351° North 239 275 14,300 1,080 Climbing Los Angeles Center
07:36PM 34.7300 -118.7653 352° North 226 260 15,300 1,020 Climbing Los Angeles Center
07:37PM 34.8044 -118.7822 349° North 227 261 16,500 960 Climbing Los Angeles Center
07:38PM 34.8661 -118.7961 350° North 224 258 17,400 900 Climbing Los Angeles Center
07:39PM 34.9264 -118.8083 351° North 220 253 18,400 840 Climbing Los Angeles Center
07:40PM 34.9872 -118.8217 350° North 222 255 19,200 720 Climbing Los Angeles Center
07:41PM 35.0500 -118.8350 350° North 226 260 20,000 840 Climbing Los Angeles Center
07:42PM 35.1247 -118.8497 351° North 228 262 21,000 780 Climbing Los Angeles Center
07:43PM 35.1850 -118.8619 351° North 223 257 21,700 480 Climbing Los Angeles Center
07:44PM 35.2472 -118.8756 350° North 226 260 22,000 120 Climbing Los Angeles Center
07:45PM 35.3147 -118.8892 351° North 239 275 22,000  Level Los Angeles Center
07:46PM 35.3856 -118.9058 349° North 255 293 22,000  Level Los Angeles Center
07:47PM 35.4553 -118.9203 350° North 256 295 22,000 -180 Level Los Angeles Center
07:48PM 35.5369 -118.9375 350° North 251 289 21,700 -540 Descending Los Angeles Center
07:49PM 35.6119 -118.9542 350° North 269 310 20,900 -840 Descending Los Angeles Center
07:50PM 35.7042 -118.9731 351° North 282 325 19,900 -900 Descending Oakland Center
07:51PM 35.7847 -118.9900 350° North 291 335 18,900 -1,020 Descending Oakland Center
07:52PM 35.8664 -119.0086 350° North 297 342 17,900 -1,020 Descending Oakland Center
07:53PM 35.9472 -119.0344 345° North 299 344 16,900 -1,020 Descending Oakland Center
07:54PM 36.0256 -119.0731 338° Northwest 301 346 15,900 -1,140 Descending Oakland Center
07:55PM 36.1194 -119.1181 339° North 303 349 14,700 -1,020 Descending Oakland Center
07:56PM 36.1953 -119.1542 339° North 299 344 13,900 -900 Descending Oakland Center
07:58PM 36.2700 -119.1894 339° North 290 334 12,900 -1,080 Descending Oakland Center
07:59PM 36.3469 -119.2269 339° North 297 342 11,700 -1,200 Descending Oakland Center
08:00PM 36.4247 -119.2639 339° North 300 345 10,500 -1,260 Descending Oakland Center
08:01PM 36.5003 -119.3000 339° North 294 338 9,200 -1,380 Descending Oakland Center
08:02PM 36.5683 -119.3528 328° Northwest 296 341 7,800 -1,380 Descending Oakland Center
08:03PM 36.6136 -119.4336 305° West 286 329 6,400 -1,320 Descending Oakland Center
08:04PM 36.6556 -119.5128 303° West 277 319 5,100 -1,380 Descending Oakland Center
08:05PM 36.7028 -119.5903 307° West 235 270 3,700 -1,440 Descending Oakland Center
08:06PM 36.7269 -119.6342 304° West 173 199 2,200 -1,500 Descending Oakland Center